sensor_id;sensor_type;location;lat;lon;timestamp;temperature;humidity
63537;DHT22;49686;51.880;5.632;2023-08-06T00:00:50;14.30;99.90
63537;DHT22;49686;51.880;5.632;2023-08-06T00:03:17;14.40;99.90
63537;DHT22;49686;51.880;5.632;2023-08-06T00:05:44;14.40;99.90
63537;DHT22;49686;51.880;5.632;2023-08-06T00:08:11;14.40;99.90
63537;DHT22;49686;51.880;5.632;2023-08-06T00:10:39;14.40;99.90
63537;DHT22;49686;51.880;5.632;2023-08-06T00:13:06;14.40;99.90
63537;DHT22;49686;51.880;5.632;2023-08-06T00:15:34;14.50;99.90
63537;DHT22;49686;51.880;5.632;2023-08-06T00:18:04;14.50;99.90
63537;DHT22;49686;51.880;5.632;2023-08-06T00:20:38;14.50;99.90
63537;DHT22;49686;51.880;5.632;2023-08-06T00:23:05;14.50;99.90
63537;DHT22;49686;51.880;5.632;2023-08-06T00:25:32;14.50;99.90
63537;DHT22;49686;51.880;5.632;2023-08-06T00:28:00;14.60;99.90
63537;DHT22;49686;51.880;5.632;2023-08-06T00:30:27;14.60;99.90
63537;DHT22;49686;51.880;5.632;2023-08-06T00:32:55;14.60;99.90
63537;DHT22;49686;51.880;5.632;2023-08-06T00:35:23;14.60;99.90
63537;DHT22;49686;51.880;5.632;2023-08-06T00:37:50;14.60;99.90
63537;DHT22;49686;51.880;5.632;2023-08-06T00:40:20;14.60;99.90
63537;DHT22;49686;51.880;5.632;2023-08-06T00:42:47;14.70;99.90
63537;DHT22;49686;51.880;5.632;2023-08-06T00:45:13;14.70;99.90
63537;DHT22;49686;51.880;5.632;2023-08-06T00:47:41;14.70;99.90
63537;DHT22;49686;51.880;5.632;2023-08-06T00:50:09;14.70;99.90
63537;DHT22;49686;51.880;5.632;2023-08-06T00:52:36;14.70;99.90
63537;DHT22;49686;51.880;5.632;2023-08-06T00:55:04;14.70;99.90
63537;DHT22;49686;51.880;5.632;2023-08-06T00:57:31;14.70;99.90
63537;DHT22;49686;51.880;5.632;2023-08-06T00:59:58;14.80;99.90
63537;DHT22;49686;51.880;5.632;2023-08-06T01:02:25;14.70;99.90
63537;DHT22;49686;51.880;5.632;2023-08-06T01:04:52;14.80;99.90
63537;DHT22;49686;51.880;5.632;2023-08-06T01:07:29;14.80;99.90
63537;DHT22;49686;51.880;5.632;2023-08-06T01:10:10;14.80;99.90
63537;DHT22;49686;51.880;5.632;2023-08-06T01:12:48;14.80;99.90
63537;DHT22;49686;51.880;5.632;2023-08-06T01:15:20;14.80;99.90
63537;DHT22;49686;51.880;5.632;2023-08-06T01:17:48;14.80;99.90
63537;DHT22;49686;51.880;5.632;2023-08-06T01:20:15;14.80;99.90
63537;DHT22;49686;51.880;5.632;2023-08-06T01:22:43;14.80;99.90
63537;DHT22;49686;51.880;5.632;2023-08-06T01:25:11;14.70;99.90
63537;DHT22;49686;51.880;5.632;2023-08-06T01:27:46;14.70;99.90
63537;DHT22;49686;51.880;5.632;2023-08-06T01:30:17;14.70;99.90
63537;DHT22;49686;51.880;5.632;2023-08-06T01:32:47;14.70;99.90
63537;DHT22;49686;51.880;5.632;2023-08-06T01:35:17;14.70;99.90
63537;DHT22;49686;51.880;5.632;2023-08-06T01:37:46;14.70;99.90
63537;DHT22;49686;51.880;5.632;2023-08-06T01:40:14;14.70;99.90
63537;DHT22;49686;51.880;5.632;2023-08-06T01:42:40;14.70;99.90
63537;DHT22;49686;51.880;5.632;2023-08-06T01:45:08;14.60;99.90
63537;DHT22;49686;51.880;5.632;2023-08-06T01:47:35;14.60;99.90
63537;DHT22;49686;51.880;5.632;2023-08-06T01:50:03;14.60;99.90
63537;DHT22;49686;51.880;5.632;2023-08-06T01:52:30;14.60;99.90
63537;DHT22;49686;51.880;5.632;2023-08-06T01:54:58;14.60;99.90
63537;DHT22;49686;51.880;5.632;2023-08-06T01:57:25;14.50;99.90
63537;DHT22;49686;51.880;5.632;2023-08-06T01:59:52;14.50;99.90
63537;DHT22;49686;51.880;5.632;2023-08-06T02:02:18;14.50;99.90
63537;DHT22;49686;51.880;5.632;2023-08-06T02:04:45;14.50;99.90
63537;DHT22;49686;51.880;5.632;2023-08-06T02:07:12;14.50;99.90
63537;DHT22;49686;51.880;5.632;2023-08-06T02:09:39;14.50;99.90
63537;DHT22;49686;51.880;5.632;2023-08-06T02:12:08;14.40;99.90
63537;DHT22;49686;51.880;5.632;2023-08-06T02:14:35;14.40;99.90
63537;DHT22;49686;51.880;5.632;2023-08-06T02:17:01;14.40;99.90
63537;DHT22;49686;51.880;5.632;2023-08-06T02:19:28;14.40;99.90
63537;DHT22;49686;51.880;5.632;2023-08-06T02:21:55;14.50;99.90
63537;DHT22;49686;51.880;5.632;2023-08-06T02:24:22;14.50;99.90
63537;DHT22;49686;51.880;5.632;2023-08-06T02:26:49;14.50;99.90
63537;DHT22;49686;51.880;5.632;2023-08-06T02:29:18;14.50;99.90
63537;DHT22;49686;51.880;5.632;2023-08-06T02:31:44;14.60;99.90
63537;DHT22;49686;51.880;5.632;2023-08-06T02:34:11;14.50;99.90
63537;DHT22;49686;51.880;5.632;2023-08-06T02:36:38;14.50;99.90
63537;DHT22;49686;51.880;5.632;2023-08-06T02:39:05;14.50;99.90
63537;DHT22;49686;51.880;5.632;2023-08-06T02:41:32;14.60;99.90
63537;DHT22;49686;51.880;5.632;2023-08-06T02:43:59;14.60;99.90
63537;DHT22;49686;51.880;5.632;2023-08-06T02:46:27;14.60;99.90
63537;DHT22;49686;51.880;5.632;2023-08-06T02:48:54;14.60;99.90
63537;DHT22;49686;51.880;5.632;2023-08-06T02:51:20;14.60;99.90
63537;DHT22;49686;51.880;5.632;2023-08-06T02:53:48;14.70;99.90
63537;DHT22;49686;51.880;5.632;2023-08-06T02:56:14;14.70;99.90
63537;DHT22;49686;51.880;5.632;2023-08-06T02:58:41;14.60;99.90
63537;DHT22;49686;51.880;5.632;2023-08-06T03:01:08;14.60;99.90
63537;DHT22;49686;51.880;5.632;2023-08-06T03:03:36;14.60;99.90
63537;DHT22;49686;51.880;5.632;2023-08-06T03:06:03;14.60;99.90
63537;DHT22;49686;51.880;5.632;2023-08-06T03:08:30;14.60;99.90
63537;DHT22;49686;51.880;5.632;2023-08-06T03:10:57;14.60;99.90
63537;DHT22;49686;51.880;5.632;2023-08-06T03:13:24;14.60;99.90
63537;DHT22;49686;51.880;5.632;2023-08-06T03:15:54;14.60;99.90
63537;DHT22;49686;51.880;5.632;2023-08-06T03:18:21;14.60;99.90
63537;DHT22;49686;51.880;5.632;2023-08-06T03:20:49;14.60;99.90
63537;DHT22;49686;51.880;5.632;2023-08-06T03:23:16;14.60;99.90
63537;DHT22;49686;51.880;5.632;2023-08-06T03:25:43;14.60;99.90
63537;DHT22;49686;51.880;5.632;2023-08-06T03:28:10;14.70;99.90
63537;DHT22;49686;51.880;5.632;2023-08-06T03:30:37;14.60;99.90
63537;DHT22;49686;51.880;5.632;2023-08-06T03:33:04;14.70;99.90
63537;DHT22;49686;51.880;5.632;2023-08-06T03:35:30;14.70;99.90
63537;DHT22;49686;51.880;5.632;2023-08-06T03:37:59;14.60;99.90
63537;DHT22;49686;51.880;5.632;2023-08-06T03:40:25;14.60;99.90
63537;DHT22;49686;51.880;5.632;2023-08-06T03:42:52;14.60;99.90
63537;DHT22;49686;51.880;5.632;2023-08-06T03:45:19;14.60;99.90
63537;DHT22;49686;51.880;5.632;2023-08-06T03:47:46;14.60;99.90
63537;DHT22;49686;51.880;5.632;2023-08-06T03:50:13;14.70;99.90
63537;DHT22;49686;51.880;5.632;2023-08-06T03:52:40;14.60;99.90
63537;DHT22;49686;51.880;5.632;2023-08-06T03:55:08;14.60;99.90
63537;DHT22;49686;51.880;5.632;2023-08-06T03:57:35;14.60;99.90
63537;DHT22;49686;51.880;5.632;2023-08-06T04:00:02;14.60;99.90
63537;DHT22;49686;51.880;5.632;2023-08-06T04:02:29;14.70;99.90
63537;DHT22;49686;51.880;5.632;2023-08-06T04:04:56;14.60;99.90
63537;DHT22;49686;51.880;5.632;2023-08-06T04:07:23;14.60;99.90
63537;DHT22;49686;51.880;5.632;2023-08-06T04:09:54;14.60;99.90
63537;DHT22;49686;51.880;5.632;2023-08-06T04:12:22;14.60;99.90
63537;DHT22;49686;51.880;5.632;2023-08-06T04:14:50;14.60;99.90
63537;DHT22;49686;51.880;5.632;2023-08-06T04:17:17;14.60;99.90
63537;DHT22;49686;51.880;5.632;2023-08-06T04:19:44;14.60;99.90
63537;DHT22;49686;51.880;5.632;2023-08-06T04:22:10;14.60;99.90
63537;DHT22;49686;51.880;5.632;2023-08-06T04:24:38;14.60;99.90
63537;DHT22;49686;51.880;5.632;2023-08-06T04:27:04;14.60;99.90
63537;DHT22;49686;51.880;5.632;2023-08-06T04:29:33;14.60;99.90
63537;DHT22;49686;51.880;5.632;2023-08-06T04:31:59;14.60;99.90
63537;DHT22;49686;51.880;5.632;2023-08-06T04:34:26;14.60;99.90
63537;DHT22;49686;51.880;5.632;2023-08-06T04:36:53;14.70;99.90
63537;DHT22;49686;51.880;5.632;2023-08-06T04:39:20;14.70;99.90
63537;DHT22;49686;51.880;5.632;2023-08-06T04:41:47;14.70;99.90
63537;DHT22;49686;51.880;5.632;2023-08-06T04:44:13;14.70;99.90
63537;DHT22;49686;51.880;5.632;2023-08-06T04:46:42;14.80;99.90
63537;DHT22;49686;51.880;5.632;2023-08-06T04:49:08;14.80;99.90
63537;DHT22;49686;51.880;5.632;2023-08-06T04:51:35;14.80;99.90
63537;DHT22;49686;51.880;5.632;2023-08-06T04:54:02;14.80;99.90
63537;DHT22;49686;51.880;5.632;2023-08-06T04:56:29;14.80;99.90
63537;DHT22;49686;51.880;5.632;2023-08-06T04:58:56;14.80;99.90
63537;DHT22;49686;51.880;5.632;2023-08-06T05:01:23;14.90;99.90
63537;DHT22;49686;51.880;5.632;2023-08-06T05:03:51;14.90;99.90
63537;DHT22;49686;51.880;5.632;2023-08-06T05:06:18;14.90;99.90
63537;DHT22;49686;51.880;5.632;2023-08-06T05:08:45;15.00;99.90
63537;DHT22;49686;51.880;5.632;2023-08-06T05:11:12;15.00;99.90
63537;DHT22;49686;51.880;5.632;2023-08-06T05:13:39;15.00;99.90
63537;DHT22;49686;51.880;5.632;2023-08-06T05:16:05;15.10;99.90
63537;DHT22;49686;51.880;5.632;2023-08-06T05:18:32;15.10;99.90
63537;DHT22;49686;51.880;5.632;2023-08-06T05:21:00;15.10;99.90
63537;DHT22;49686;51.880;5.632;2023-08-06T05:23:27;15.10;99.90
63537;DHT22;49686;51.880;5.632;2023-08-06T05:25:54;15.20;99.90
63537;DHT22;49686;51.880;5.632;2023-08-06T05:28:21;15.20;99.90
63537;DHT22;49686;51.880;5.632;2023-08-06T05:30:48;15.30;99.90
63537;DHT22;49686;51.880;5.632;2023-08-06T05:33:14;15.30;99.90
63537;DHT22;49686;51.880;5.632;2023-08-06T05:35:41;15.30;99.90
63537;DHT22;49686;51.880;5.632;2023-08-06T05:38:09;15.40;99.90
63537;DHT22;49686;51.880;5.632;2023-08-06T05:40:36;15.40;99.90
63537;DHT22;49686;51.880;5.632;2023-08-06T05:43:03;15.60;99.90
63537;DHT22;49686;51.880;5.632;2023-08-06T05:45:30;15.70;99.90
63537;DHT22;49686;51.880;5.632;2023-08-06T05:47:57;15.70;99.90
63537;DHT22;49686;51.880;5.632;2023-08-06T05:50:24;15.70;99.90
63537;DHT22;49686;51.880;5.632;2023-08-06T05:52:50;15.80;99.90
63537;DHT22;49686;51.880;5.632;2023-08-06T05:55:19;15.80;99.90
63537;DHT22;49686;51.880;5.632;2023-08-06T05:57:46;15.90;99.90
63537;DHT22;49686;51.880;5.632;2023-08-06T06:00:13;16.00;99.90
63537;DHT22;49686;51.880;5.632;2023-08-06T06:02:40;16.00;99.90
63537;DHT22;49686;51.880;5.632;2023-08-06T06:05:07;15.90;99.90
63537;DHT22;49686;51.880;5.632;2023-08-06T06:07:34;15.90;99.90
63537;DHT22;49686;51.880;5.632;2023-08-06T06:10:01;15.90;99.90
63537;DHT22;49686;51.880;5.632;2023-08-06T06:12:29;15.90;99.90
63537;DHT22;49686;51.880;5.632;2023-08-06T06:14:56;15.80;99.90
63537;DHT22;49686;51.880;5.632;2023-08-06T06:17:23;15.70;99.90
63537;DHT22;49686;51.880;5.632;2023-08-06T06:19:50;15.80;99.90
63537;DHT22;49686;51.880;5.632;2023-08-06T06:22:17;15.70;99.90
63537;DHT22;49686;51.880;5.632;2023-08-06T06:24:44;15.80;99.90
63537;DHT22;49686;51.880;5.632;2023-08-06T06:27:11;15.80;99.90
63537;DHT22;49686;51.880;5.632;2023-08-06T06:29:40;15.70;99.90
63537;DHT22;49686;51.880;5.632;2023-08-06T06:32:07;15.70;99.90
63537;DHT22;49686;51.880;5.632;2023-08-06T06:34:34;15.70;99.90
63537;DHT22;49686;51.880;5.632;2023-08-06T06:37:01;15.60;99.90
63537;DHT22;49686;51.880;5.632;2023-08-06T06:39:28;15.60;99.90
63537;DHT22;49686;51.880;5.632;2023-08-06T06:41:55;15.50;99.90
63537;DHT22;49686;51.880;5.632;2023-08-06T06:44:22;15.50;99.90
63537;DHT22;49686;51.880;5.632;2023-08-06T06:46:50;15.50;99.90
63537;DHT22;49686;51.880;5.632;2023-08-06T06:49:20;15.50;99.90
63537;DHT22;49686;51.880;5.632;2023-08-06T06:51:47;15.40;99.90
63537;DHT22;49686;51.880;5.632;2023-08-06T06:54:13;15.50;99.90
63537;DHT22;49686;51.880;5.632;2023-08-06T06:56:41;15.50;99.90
63537;DHT22;49686;51.880;5.632;2023-08-06T06:59:08;15.50;99.90
63537;DHT22;49686;51.880;5.632;2023-08-06T07:01:34;15.50;99.90
63537;DHT22;49686;51.880;5.632;2023-08-06T07:04:04;15.50;99.90
63537;DHT22;49686;51.880;5.632;2023-08-06T07:06:31;15.60;99.90
63537;DHT22;49686;51.880;5.632;2023-08-06T07:09:01;15.60;99.90
63537;DHT22;49686;51.880;5.632;2023-08-06T07:11:28;15.70;99.90
63537;DHT22;49686;51.880;5.632;2023-08-06T07:13:56;15.80;99.90
63537;DHT22;49686;51.880;5.632;2023-08-06T07:16:23;15.80;99.90
63537;DHT22;49686;51.880;5.632;2023-08-06T07:18:51;15.80;99.90
63537;DHT22;49686;51.880;5.632;2023-08-06T07:21:20;15.80;99.90
63537;DHT22;49686;51.880;5.632;2023-08-06T07:23:47;15.90;99.90
63537;DHT22;49686;51.880;5.632;2023-08-06T07:26:14;15.90;99.90
63537;DHT22;49686;51.880;5.632;2023-08-06T07:28:40;15.80;99.90
63537;DHT22;49686;51.880;5.632;2023-08-06T07:31:07;15.80;99.90
63537;DHT22;49686;51.880;5.632;2023-08-06T07:33:35;15.80;99.90
63537;DHT22;49686;51.880;5.632;2023-08-06T07:36:08;15.90;99.90
63537;DHT22;49686;51.880;5.632;2023-08-06T07:38:36;15.80;99.90
63537;DHT22;49686;51.880;5.632;2023-08-06T07:41:03;15.80;99.90
63537;DHT22;49686;51.880;5.632;2023-08-06T07:43:30;15.80;99.90
63537;DHT22;49686;51.880;5.632;2023-08-06T07:45:58;15.90;99.90
63537;DHT22;49686;51.880;5.632;2023-08-06T07:48:24;15.90;99.90
63537;DHT22;49686;51.880;5.632;2023-08-06T07:50:51;16.00;99.90
63537;DHT22;49686;51.880;5.632;2023-08-06T07:53:19;16.10;99.90
63537;DHT22;49686;51.880;5.632;2023-08-06T07:55:49;16.10;99.90
63537;DHT22;49686;51.880;5.632;2023-08-06T07:58:16;16.20;99.90
63537;DHT22;49686;51.880;5.632;2023-08-06T08:00:43;16.10;99.90
63537;DHT22;49686;51.880;5.632;2023-08-06T08:03:10;16.20;99.90
63537;DHT22;49686;51.880;5.632;2023-08-06T08:05:37;16.10;99.90
63537;DHT22;49686;51.880;5.632;2023-08-06T08:08:04;16.30;99.90
63537;DHT22;49686;51.880;5.632;2023-08-06T08:10:31;16.40;99.90
63537;DHT22;49686;51.880;5.632;2023-08-06T08:12:59;16.60;99.90
63537;DHT22;49686;51.880;5.632;2023-08-06T08:15:29;16.60;99.90
63537;DHT22;49686;51.880;5.632;2023-08-06T08:17:59;16.60;99.90
63537;DHT22;49686;51.880;5.632;2023-08-06T08:20:26;16.60;99.90
63537;DHT22;49686;51.880;5.632;2023-08-06T08:22:53;16.50;99.90
63537;DHT22;49686;51.880;5.632;2023-08-06T08:25:20;16.30;99.90
63537;DHT22;49686;51.880;5.632;2023-08-06T08:27:47;16.10;99.90
63537;DHT22;49686;51.880;5.632;2023-08-06T08:30:15;15.60;99.90
63537;DHT22;49686;51.880;5.632;2023-08-06T08:32:42;15.20;99.90
63537;DHT22;49686;51.880;5.632;2023-08-06T08:35:08;15.00;99.90
63537;DHT22;49686;51.880;5.632;2023-08-06T08:37:36;14.80;99.90
63537;DHT22;49686;51.880;5.632;2023-08-06T08:40:03;14.60;99.90
63537;DHT22;49686;51.880;5.632;2023-08-06T08:42:30;14.50;99.90
63537;DHT22;49686;51.880;5.632;2023-08-06T08:44:57;14.30;99.90
63537;DHT22;49686;51.880;5.632;2023-08-06T08:47:28;14.20;99.90
63537;DHT22;49686;51.880;5.632;2023-08-06T08:49:56;14.20;99.90
63537;DHT22;49686;51.880;5.632;2023-08-06T08:52:26;14.10;99.90
63537;DHT22;49686;51.880;5.632;2023-08-06T08:54:57;14.10;99.90
63537;DHT22;49686;51.880;5.632;2023-08-06T08:57:30;14.10;99.90
63537;DHT22;49686;51.880;5.632;2023-08-06T08:59:57;14.00;99.90
63537;DHT22;49686;51.880;5.632;2023-08-06T09:02:28;13.90;99.90
63537;DHT22;49686;51.880;5.632;2023-08-06T09:04:56;14.00;99.90
63537;DHT22;49686;51.880;5.632;2023-08-06T09:07:24;14.00;99.90
63537;DHT22;49686;51.880;5.632;2023-08-06T09:09:52;14.00;99.90
63537;DHT22;49686;51.880;5.632;2023-08-06T09:12:19;14.00;99.90
63537;DHT22;49686;51.880;5.632;2023-08-06T09:14:47;13.90;99.90
63537;DHT22;49686;51.880;5.632;2023-08-06T09:17:14;13.90;99.90
63537;DHT22;49686;51.880;5.632;2023-08-06T09:19:43;14.00;99.90
63537;DHT22;49686;51.880;5.632;2023-08-06T09:22:11;13.90;99.90
63537;DHT22;49686;51.880;5.632;2023-08-06T09:24:38;13.90;99.90
63537;DHT22;49686;51.880;5.632;2023-08-06T09:27:06;13.90;99.90
63537;DHT22;49686;51.880;5.632;2023-08-06T09:29:40;13.90;99.90
63537;DHT22;49686;51.880;5.632;2023-08-06T09:32:10;13.90;99.90
63537;DHT22;49686;51.880;5.632;2023-08-06T09:34:45;13.90;99.90
63537;DHT22;49686;51.880;5.632;2023-08-06T09:37:15;13.90;99.90
63537;DHT22;49686;51.880;5.632;2023-08-06T09:39:42;13.90;99.90
63537;DHT22;49686;51.880;5.632;2023-08-06T09:42:09;13.80;99.90
63537;DHT22;49686;51.880;5.632;2023-08-06T09:44:47;13.80;99.90
63537;DHT22;49686;51.880;5.632;2023-08-06T09:47:16;13.80;99.90
63537;DHT22;49686;51.880;5.632;2023-08-06T09:49:44;13.80;99.90
63537;DHT22;49686;51.880;5.632;2023-08-06T09:52:12;13.80;99.90
63537;DHT22;49686;51.880;5.632;2023-08-06T09:54:45;13.80;99.90
63537;DHT22;49686;51.880;5.632;2023-08-06T09:57:14;13.80;99.90
63537;DHT22;49686;51.880;5.632;2023-08-06T09:59:42;13.90;99.90
63537;DHT22;49686;51.880;5.632;2023-08-06T10:02:12;13.90;99.90
63537;DHT22;49686;51.880;5.632;2023-08-06T10:04:39;14.00;99.90
63537;DHT22;49686;51.880;5.632;2023-08-06T10:07:09;14.00;99.90
63537;DHT22;49686;51.880;5.632;2023-08-06T10:09:35;14.00;99.90
63537;DHT22;49686;51.880;5.632;2023-08-06T10:12:03;14.10;99.90
63537;DHT22;49686;51.880;5.632;2023-08-06T10:14:32;14.20;99.90
63537;DHT22;49686;51.880;5.632;2023-08-06T10:17:00;14.20;99.90
63537;DHT22;49686;51.880;5.632;2023-08-06T10:19:28;14.30;99.90
63537;DHT22;49686;51.880;5.632;2023-08-06T10:22:17;14.30;99.90
63537;DHT22;49686;51.880;5.632;2023-08-06T10:24:50;14.40;99.90
63537;DHT22;49686;51.880;5.632;2023-08-06T10:27:22;14.40;99.90
63537;DHT22;49686;51.880;5.632;2023-08-06T10:29:52;14.50;99.90
63537;DHT22;49686;51.880;5.632;2023-08-06T10:32:21;14.40;99.90
63537;DHT22;49686;51.880;5.632;2023-08-06T10:34:55;14.50;99.90
63537;DHT22;49686;51.880;5.632;2023-08-06T10:37:23;14.50;99.90
63537;DHT22;49686;51.880;5.632;2023-08-06T10:39:51;14.50;99.90
63537;DHT22;49686;51.880;5.632;2023-08-06T10:42:22;14.50;99.90
63537;DHT22;49686;51.880;5.632;2023-08-06T10:45:11;14.60;99.90
63537;DHT22;49686;51.880;5.632;2023-08-06T10:47:38;14.60;99.90
63537;DHT22;49686;51.880;5.632;2023-08-06T10:50:12;14.60;99.90
63537;DHT22;49686;51.880;5.632;2023-08-06T10:52:40;14.60;99.90
63537;DHT22;49686;51.880;5.632;2023-08-06T10:55:07;14.50;99.90
63537;DHT22;49686;51.880;5.632;2023-08-06T10:57:34;14.60;99.90
63537;DHT22;49686;51.880;5.632;2023-08-06T11:00:01;14.60;99.90
63537;DHT22;49686;51.880;5.632;2023-08-06T11:02:42;14.60;99.90
63537;DHT22;49686;51.880;5.632;2023-08-06T11:05:10;14.60;99.90
63537;DHT22;49686;51.880;5.632;2023-08-06T11:07:37;14.60;99.90
63537;DHT22;49686;51.880;5.632;2023-08-06T11:10:08;14.60;99.90
63537;DHT22;49686;51.880;5.632;2023-08-06T11:12:36;14.60;99.90
63537;DHT22;49686;51.880;5.632;2023-08-06T11:15:04;14.50;99.90
63537;DHT22;49686;51.880;5.632;2023-08-06T11:17:33;14.30;99.90
63537;DHT22;49686;51.880;5.632;2023-08-06T11:20:00;14.40;99.90
63537;DHT22;49686;51.880;5.632;2023-08-06T11:22:27;14.50;99.90
63537;DHT22;49686;51.880;5.632;2023-08-06T11:24:55;14.50;99.90
63537;DHT22;49686;51.880;5.632;2023-08-06T11:27:25;14.50;99.90
63537;DHT22;49686;51.880;5.632;2023-08-06T11:29:52;14.50;99.90
63537;DHT22;49686;51.880;5.632;2023-08-06T11:32:19;14.50;99.90
63537;DHT22;49686;51.880;5.632;2023-08-06T11:34:46;14.40;99.90
63537;DHT22;49686;51.880;5.632;2023-08-06T11:37:13;14.50;99.90
63537;DHT22;49686;51.880;5.632;2023-08-06T11:39:45;14.60;99.90
63537;DHT22;49686;51.880;5.632;2023-08-06T11:42:13;14.60;99.90
63537;DHT22;49686;51.880;5.632;2023-08-06T11:44:41;14.60;99.90
63537;DHT22;49686;51.880;5.632;2023-08-06T11:47:12;14.60;99.90
63537;DHT22;49686;51.880;5.632;2023-08-06T11:49:41;14.60;99.90
63537;DHT22;49686;51.880;5.632;2023-08-06T11:52:15;14.60;99.90
63537;DHT22;49686;51.880;5.632;2023-08-06T11:54:42;14.70;99.90
63537;DHT22;49686;51.880;5.632;2023-08-06T11:57:10;14.70;99.90
63537;DHT22;49686;51.880;5.632;2023-08-06T11:59:37;14.80;99.90
63537;DHT22;49686;51.880;5.632;2023-08-06T12:02:08;14.90;99.90
63537;DHT22;49686;51.880;5.632;2023-08-06T12:05:00;15.00;99.90
63537;DHT22;49686;51.880;5.632;2023-08-06T12:07:29;15.10;99.90
63537;DHT22;49686;51.880;5.632;2023-08-06T12:09:56;15.10;99.90
63537;DHT22;49686;51.880;5.632;2023-08-06T12:12:23;15.20;99.90
63537;DHT22;49686;51.880;5.632;2023-08-06T12:14:50;15.20;99.90
63537;DHT22;49686;51.880;5.632;2023-08-06T12:17:18;15.20;99.90
63537;DHT22;49686;51.880;5.632;2023-08-06T12:19:45;15.20;99.90
63537;DHT22;49686;51.880;5.632;2023-08-06T12:22:12;15.20;99.90
63537;DHT22;49686;51.880;5.632;2023-08-06T12:24:39;15.10;99.90
63537;DHT22;49686;51.880;5.632;2023-08-06T12:27:06;15.10;99.90
63537;DHT22;49686;51.880;5.632;2023-08-06T12:29:33;15.00;99.90
63537;DHT22;49686;51.880;5.632;2023-08-06T12:31:59;15.00;99.90
63537;DHT22;49686;51.880;5.632;2023-08-06T12:34:27;15.00;99.90
63537;DHT22;49686;51.880;5.632;2023-08-06T12:37:02;14.90;99.90
63537;DHT22;49686;51.880;5.632;2023-08-06T12:39:29;14.90;99.90
63537;DHT22;49686;51.880;5.632;2023-08-06T12:41:56;14.90;99.90
63537;DHT22;49686;51.880;5.632;2023-08-06T12:44:29;14.90;99.90
63537;DHT22;49686;51.880;5.632;2023-08-06T12:46:57;14.90;99.90
63537;DHT22;49686;51.880;5.632;2023-08-06T12:49:25;14.90;99.90
63537;DHT22;49686;51.880;5.632;2023-08-06T12:51:54;14.90;99.90
63537;DHT22;49686;51.880;5.632;2023-08-06T12:54:21;14.90;99.90
63537;DHT22;49686;51.880;5.632;2023-08-06T12:56:48;14.90;99.90
63537;DHT22;49686;51.880;5.632;2023-08-06T12:59:16;14.90;99.90
63537;DHT22;49686;51.880;5.632;2023-08-06T13:01:44;14.80;99.90
63537;DHT22;49686;51.880;5.632;2023-08-06T13:04:11;14.90;99.90
63537;DHT22;49686;51.880;5.632;2023-08-06T13:06:48;14.90;99.90
63537;DHT22;49686;51.880;5.632;2023-08-06T13:09:17;15.00;99.90
63537;DHT22;49686;51.880;5.632;2023-08-06T13:11:43;15.00;99.90
63537;DHT22;49686;51.880;5.632;2023-08-06T13:14:11;14.90;99.90
63537;DHT22;49686;51.880;5.632;2023-08-06T13:16:40;14.90;99.90
63537;DHT22;49686;51.880;5.632;2023-08-06T13:19:07;14.90;99.90
63537;DHT22;49686;51.880;5.632;2023-08-06T13:21:57;14.90;99.90
63537;DHT22;49686;51.880;5.632;2023-08-06T13:24:23;14.80;99.90
63537;DHT22;49686;51.880;5.632;2023-08-06T13:26:50;14.80;99.90
63537;DHT22;49686;51.880;5.632;2023-08-06T13:29:17;14.80;99.90
63537;DHT22;49686;51.880;5.632;2023-08-06T13:31:44;14.90;99.90
63537;DHT22;49686;51.880;5.632;2023-08-06T13:34:11;14.90;99.90
63537;DHT22;49686;51.880;5.632;2023-08-06T13:36:38;14.90;99.90
63537;DHT22;49686;51.880;5.632;2023-08-06T13:39:05;14.90;99.90
63537;DHT22;49686;51.880;5.632;2023-08-06T13:41:33;14.90;99.90
63537;DHT22;49686;51.880;5.632;2023-08-06T13:44:00;14.90;99.90
63537;DHT22;49686;51.880;5.632;2023-08-06T13:46:27;14.90;99.90
63537;DHT22;49686;51.880;5.632;2023-08-06T13:48:54;14.90;99.90
63537;DHT22;49686;51.880;5.632;2023-08-06T13:51:21;14.90;99.90
63537;DHT22;49686;51.880;5.632;2023-08-06T13:53:47;14.90;99.90
63537;DHT22;49686;51.880;5.632;2023-08-06T13:56:14;14.90;99.90
63537;DHT22;49686;51.880;5.632;2023-08-06T13:58:43;15.00;99.90
63537;DHT22;49686;51.880;5.632;2023-08-06T14:01:12;15.10;99.90
63537;DHT22;49686;51.880;5.632;2023-08-06T14:03:39;15.10;99.90
63537;DHT22;49686;51.880;5.632;2023-08-06T14:06:06;15.00;99.90
63537;DHT22;49686;51.880;5.632;2023-08-06T14:08:33;15.00;99.90
63537;DHT22;49686;51.880;5.632;2023-08-06T14:11:00;15.10;99.90
63537;DHT22;49686;51.880;5.632;2023-08-06T14:13:26;15.10;99.90
63537;DHT22;49686;51.880;5.632;2023-08-06T14:15:55;15.10;99.90
63537;DHT22;49686;51.880;5.632;2023-08-06T14:18:21;15.10;99.90
63537;DHT22;49686;51.880;5.632;2023-08-06T14:20:48;15.20;99.90
63537;DHT22;49686;51.880;5.632;2023-08-06T14:23:15;15.20;99.90
63537;DHT22;49686;51.880;5.632;2023-08-06T14:25:42;15.30;99.90
63537;DHT22;49686;51.880;5.632;2023-08-06T14:28:09;15.30;99.90
63537;DHT22;49686;51.880;5.632;2023-08-06T14:30:36;15.30;99.90
63537;DHT22;49686;51.880;5.632;2023-08-06T14:33:04;15.30;99.90
63537;DHT22;49686;51.880;5.632;2023-08-06T14:35:42;15.40;99.90
63537;DHT22;49686;51.880;5.632;2023-08-06T14:38:09;15.40;99.90
63537;DHT22;49686;51.880;5.632;2023-08-06T14:40:36;15.40;99.90
63537;DHT22;49686;51.880;5.632;2023-08-06T14:43:03;15.40;99.90
63537;DHT22;49686;51.880;5.632;2023-08-06T14:45:30;15.20;99.90
63537;DHT22;49686;51.880;5.632;2023-08-06T14:47:57;15.30;99.90
63537;DHT22;49686;51.880;5.632;2023-08-06T14:50:25;15.30;99.90
63537;DHT22;49686;51.880;5.632;2023-08-06T14:52:52;15.20;99.90
63537;DHT22;49686;51.880;5.632;2023-08-06T14:55:23;15.20;99.90
63537;DHT22;49686;51.880;5.632;2023-08-06T14:57:51;15.20;99.90
63537;DHT22;49686;51.880;5.632;2023-08-06T15:00:18;15.20;99.90
63537;DHT22;49686;51.880;5.632;2023-08-06T15:02:45;15.20;99.90
63537;DHT22;49686;51.880;5.632;2023-08-06T15:05:12;15.30;99.90
63537;DHT22;49686;51.880;5.632;2023-08-06T15:07:40;15.30;99.90
63537;DHT22;49686;51.880;5.632;2023-08-06T15:10:10;15.40;99.90
63537;DHT22;49686;51.880;5.632;2023-08-06T15:12:39;15.40;99.90
63537;DHT22;49686;51.880;5.632;2023-08-06T15:15:09;15.40;99.90
63537;DHT22;49686;51.880;5.632;2023-08-06T15:17:38;15.30;99.90
63537;DHT22;49686;51.880;5.632;2023-08-06T15:20:06;15.30;99.90
63537;DHT22;49686;51.880;5.632;2023-08-06T15:22:33;15.40;99.90
63537;DHT22;49686;51.880;5.632;2023-08-06T15:25:02;15.40;99.90
63537;DHT22;49686;51.880;5.632;2023-08-06T15:27:29;15.40;99.90
63537;DHT22;49686;51.880;5.632;2023-08-06T15:29:56;15.40;99.90
63537;DHT22;49686;51.880;5.632;2023-08-06T15:32:23;15.50;99.90
63537;DHT22;49686;51.880;5.632;2023-08-06T15:34:50;15.40;99.90